createdAt,value
2022-08-05T00:00:16.215Z,6.30
2022-08-05T00:03:24.086Z,6.30
2022-08-05T00:06:29.214Z,6.20
2022-08-05T00:09:30.133Z,6.80
2022-08-05T00:12:29.036Z,6.50
2022-08-05T00:15:55.173Z,6.30
2022-08-05T00:18:44.249Z,6.20
2022-08-05T00:21:42.728Z,5.90
2022-08-05T00:24:44.055Z,6.10
2022-08-05T00:27:42.811Z,5.90
2022-08-05T00:30:41.105Z,5.80
2022-08-05T00:34:53.692Z,6.20
2022-08-05T00:37:12.484Z,6.30
2022-08-05T00:40:14.844Z,5.90
2022-08-05T00:43:15.286Z,5.90
2022-08-05T00:46:12.988Z,5.60
2022-08-05T00:49:15.368Z,5.60
2022-08-05T00:52:15.859Z,5.90
2022-08-05T00:55:15.072Z,5.70
2022-08-05T00:58:11.950Z,5.40
2022-08-05T01:01:09.746Z,5.70
2022-08-05T01:04:13.922Z,5.40
2022-08-05T01:07:13.589Z,5.10
2022-08-05T01:10:11.274Z,5.30
2022-08-05T01:13:13.417Z,5.40
2022-08-05T01:16:26.123Z,5.30
2022-08-05T01:19:46.225Z,5.20
2022-08-05T01:22:57.438Z,5.10
2022-08-05T01:25:54.776Z,4.80
2022-08-05T01:28:50.954Z,4.90
2022-08-05T01:31:48.058Z,4.80
2022-08-05T01:34:44.961Z,4.80
2022-08-05T01:37:44.311Z,5.10
2022-08-05T01:40:42.026Z,5.00
2022-08-05T01:43:38.886Z,4.40
2022-08-05T01:46:42.154Z,4.40
2022-08-05T01:50:00.357Z,4.50
2022-08-05T01:52:58.909Z,4.70
2022-08-05T01:55:55.994Z,4.70
2022-08-05T01:58:54.950Z,4.60
2022-08-05T02:01:51.822Z,5.00
2022-08-05T02:04:52.097Z,5.00
2022-08-05T02:07:59.784Z,4.80
2022-08-05T02:10:57.926Z,4.30
2022-08-05T02:13:54.858Z,4.90
2022-08-05T02:16:52.771Z,4.80
2022-08-05T02:19:51.045Z,4.90
2022-08-05T02:22:47.966Z,4.70
2022-08-05T02:25:50.141Z,4.70
2022-08-05T02:28:47.876Z,4.80
2022-08-05T02:31:46.904Z,4.80
2022-08-05T02:34:44.071Z,4.70
2022-08-05T02:37:54.156Z,4.40
2022-08-05T02:40:52.086Z,4.80
2022-08-05T02:44:06.416Z,4.50
2022-08-05T02:47:05.956Z,4.90
2022-08-05T02:50:02.868Z,4.40
2022-08-05T02:52:59.976Z,4.30
2022-08-05T02:56:01.839Z,4.20
2022-08-05T02:58:59.965Z,4.70
2022-08-05T03:02:01.061Z,4.70
2022-08-05T03:04:58.026Z,4.70
2022-08-05T03:08:06.858Z,4.90
2022-08-05T03:11:54.488Z,4.50
2022-08-05T03:14:28.864Z,4.60
2022-08-05T03:17:26.346Z,4.70
2022-08-05T03:20:25.089Z,4.50
2022-08-05T03:23:24.179Z,4.70
2022-08-05T03:26:31.353Z,4.80
2022-08-05T03:29:45.270Z,4.50
2022-08-05T03:32:47.756Z,5.10
2022-08-05T03:35:44.882Z,5.10
2022-08-05T03:38:42.057Z,4.90
2022-08-05T03:41:46.762Z,4.80
2022-08-05T03:44:43.906Z,4.60
2022-08-05T03:47:42.050Z,4.60
2022-08-05T03:50:38.954Z,4.70
2022-08-05T03:55:53.175Z,5.00
2022-08-05T03:56:53.859Z,5.00
2022-08-05T03:59:54.709Z,5.10
2022-08-05T04:02:58.500Z,4.50
2022-08-05T04:05:56.479Z,4.20
2022-08-05T04:08:55.825Z,4.50
2022-08-05T04:11:52.977Z,4.50
2022-08-05T04:14:49.956Z,4.80
2022-08-05T04:17:56.326Z,4.60
2022-08-05T04:20:57.813Z,4.70
2022-08-05T04:24:06.745Z,4.70
2022-08-05T04:27:06.819Z,4.50
2022-08-05T04:30:04.935Z,4.80
2022-08-05T04:33:03.872Z,4.90
2022-08-05T04:36:15.989Z,4.60
2022-08-05T04:39:18.915Z,4.70
2022-08-05T04:42:15.696Z,4.20
2022-08-05T04:45:22.940Z,4.30
2022-08-05T04:48:28.867Z,4.50
2022-08-05T04:51:30.311Z,4.10
2022-08-05T04:54:31.355Z,5.50
2022-08-05T04:57:37.121Z,5.20
2022-08-05T05:00:34.937Z,4.90
2022-08-05T05:03:41.694Z,4.60
2022-08-05T05:06:51.987Z,4.70
2022-08-05T05:10:07.204Z,4.50
2022-08-05T05:13:05.613Z,4.90
2022-08-05T05:16:07.267Z,4.20
2022-08-05T05:19:18.556Z,4.10
2022-08-05T05:22:24.238Z,14.10
2022-08-05T05:25:40.295Z,4.90
2022-08-05T05:28:42.677Z,6.00
2022-08-05T05:34:36.486Z,4.00
2022-08-05T05:38:09.167Z,4.10
2022-08-05T05:41:16.400Z,4.30
2022-08-05T05:48:07.141Z,4.30
2022-08-05T05:50:50.996Z,4.80
2022-08-05T05:53:57.259Z,4.80
2022-08-05T05:56:47.312Z,4.30
2022-08-05T05:59:44.915Z,4.50
2022-08-05T06:02:41.888Z,3.50
2022-08-05T06:05:38.998Z,4.40
2022-08-05T06:08:35.838Z,4.30
2022-08-05T06:11:39.369Z,4.00
2022-08-05T06:15:05.672Z,4.10
2022-08-05T06:18:05.730Z,4.00
2022-08-05T06:21:18.684Z,3.80
2022-08-05T06:24:31.590Z,4.40
2022-08-05T06:28:10.755Z,4.00
2022-08-05T06:31:10.900Z,4.00
2022-08-05T06:34:14.971Z,3.90
2022-08-05T06:37:12.875Z,10.40
2022-08-05T06:40:32.331Z,10.40
2022-08-05T06:46:50.954Z,3.80
2022-08-05T06:50:05.280Z,5.00
2022-08-05T06:53:11.688Z,4.60
2022-08-05T06:56:26.625Z,4.00
2022-08-05T06:59:23.621Z,3.50
2022-08-05T07:02:22.868Z,3.50
2022-08-05T07:05:22.318Z,4.00
2022-08-05T07:08:25.507Z,3.80
2022-08-05T07:11:25.472Z,4.30
2022-08-05T07:14:33.215Z,3.40
2022-08-05T07:18:09.236Z,3.60
2022-08-05T07:20:48.609Z,3.40
2022-08-05T07:23:50.007Z,3.50
2022-08-05T07:26:48.742Z,3.80
2022-08-05T07:30:22.065Z,3.60
2022-08-05T07:33:05.424Z,3.80
2022-08-05T07:36:20.557Z,4.10
2022-08-05T07:39:24.736Z,3.90
2022-08-05T07:42:38.711Z,3.80
2022-08-05T07:45:57.518Z,3.90
2022-08-05T07:49:10.910Z,4.00
2022-08-05T07:52:06.648Z,4.40
2022-08-05T07:59:38.716Z,3.80
2022-08-05T08:03:14.308Z,3.60
2022-08-05T08:05:53.803Z,3.50
2022-08-05T08:08:41.819Z,3.20
2022-08-05T08:11:49.499Z,3.40
2022-08-05T08:14:52.808Z,3.50
2022-08-05T08:17:52.796Z,3.60
2022-08-05T08:20:59.805Z,3.10
2022-08-05T08:24:04.003Z,3.60
2022-08-05T08:26:09.225Z,3.20
2022-08-05T08:28:59.454Z,3.50
2022-08-05T08:31:33.277Z,3.50
2022-08-05T08:34:05.208Z,3.40
2022-08-05T08:36:48.834Z,3.30
2022-08-05T08:39:25.129Z,3.40
2022-08-05T08:42:34.161Z,3.30
2022-08-05T08:45:44.820Z,3.40
2022-08-05T08:48:41.381Z,3.40
2022-08-05T08:52:04.031Z,3.30
2022-08-05T08:54:39.436Z,3.20
2022-08-05T08:57:17.707Z,3.70
2022-08-05T09:00:31.914Z,3.70
2022-08-05T09:03:44.852Z,4.00
2022-08-05T09:06:46.813Z,3.10
2022-08-05T09:09:46.846Z,3.10
2022-08-05T09:12:53.658Z,4.80
2022-08-05T09:15:54.116Z,3.40
2022-08-05T09:18:52.859Z,3.00
2022-08-05T09:22:23.622Z,3.10
2022-08-05T09:28:34.543Z,2.40
2022-08-05T09:32:40.245Z,2.50
2022-08-05T09:35:04.454Z,3.60
2022-08-05T09:38:12.749Z,3.20
2022-08-05T09:41:17.786Z,2.70
2022-08-05T09:44:07.814Z,3.20
2022-08-05T09:46:58.164Z,2.40
2022-08-05T09:50:00.951Z,4.10
2022-08-05T09:52:35.532Z,2.30
2022-08-05T09:55:58.137Z,3.00
2022-08-05T09:58:26.582Z,2.20
2022-08-05T10:01:32.119Z,2.30
2022-08-05T10:04:49.659Z,2.30
2022-08-05T10:08:11.171Z,2.10
2022-08-05T10:11:15.691Z,2.10
2022-08-05T10:13:49.851Z,2.30
2022-08-05T10:16:52.973Z,2.20
2022-08-05T10:20:03.613Z,2.80
2022-08-05T10:22:37.666Z,2.40
2022-08-05T10:25:24.327Z,2.30
2022-08-05T10:28:19.479Z,2.40
2022-08-05T10:32:54.223Z,2.20
2022-08-05T10:34:41.535Z,2.30
2022-08-05T10:37:26.667Z,2.30
2022-08-05T10:40:27.907Z,2.40
2022-08-05T10:43:13.596Z,2.50
2022-08-05T10:49:16.618Z,3.40
2022-08-05T10:52:16.521Z,2.50
2022-08-05T10:55:16.096Z,2.40
2022-08-05T10:58:18.007Z,4.20
2022-08-05T11:01:28.413Z,2.70
2022-08-05T11:04:36.591Z,2.40
2022-08-05T11:08:01.322Z,2.40
2022-08-05T11:11:01.003Z,2.80
2022-08-05T11:16:57.974Z,2.70
2022-08-05T11:20:16.927Z,2.20
2022-08-05T11:23:17.476Z,2.30
2022-08-05T11:26:15.630Z,2.20
2022-08-05T11:29:25.676Z,2.40
2022-08-05T11:32:23.417Z,2.30
2022-08-05T11:35:26.245Z,2.10
2022-08-05T11:38:37.333Z,2.30
2022-08-05T11:42:01.183Z,2.20
2022-08-05T11:45:03.010Z,2.40
2022-08-05T11:48:03.514Z,2.60
2022-08-05T11:51:00.682Z,2.20
2022-08-05T11:53:58.773Z,2.10
2022-08-05T11:56:56.601Z,2.40
2022-08-05T11:59:59.758Z,2.80
2022-08-05T12:03:08.001Z,2.30
2022-08-05T12:05:54.863Z,2.40
2022-08-05T12:09:04.933Z,2.30
2022-08-05T12:11:56.589Z,2.90
2022-08-05T12:14:57.698Z,2.10
2022-08-05T12:18:04.274Z,2.30
2022-08-05T12:21:07.596Z,2.00
2022-08-05T12:24:17.339Z,9.00
2022-08-05T12:27:09.699Z,3.00
2022-08-05T12:30:23.221Z,2.60
2022-08-05T12:33:36.689Z,3.00
2022-08-05T12:36:35.467Z,2.30
2022-08-05T12:39:23.534Z,2.30
2022-08-05T12:42:25.264Z,2.50
2022-08-05T12:45:22.637Z,2.40
2022-08-05T12:48:39.995Z,2.60
2022-08-05T12:52:10.760Z,2.70
2022-08-05T12:54:40.813Z,2.90
2022-08-05T12:58:50.149Z,2.70
2022-08-05T13:02:00.940Z,4.40
2022-08-05T13:04:07.550Z,2.90
2022-08-05T13:07:10.489Z,2.50
2022-08-05T13:10:05.225Z,2.80
2022-08-05T13:13:03.108Z,2.80
2022-08-05T13:15:52.369Z,2.50
2022-08-05T13:18:38.144Z,3.00
2022-08-05T13:21:38.163Z,2.30
2022-08-05T13:24:57.706Z,2.30
2022-08-05T13:31:20.336Z,3.00
2022-08-05T13:34:38.145Z,2.60
2022-08-05T13:37:34.818Z,2.70
2022-08-05T13:40:35.541Z,2.80
2022-08-05T13:43:45.651Z,2.70
2022-08-05T13:47:02.238Z,3.40
2022-08-05T13:57:02.684Z,3.40
2022-08-05T14:03:11.645Z,2.50
2022-08-05T14:09:29.809Z,2.70
2022-08-05T14:12:32.787Z,2.70
2022-08-05T14:16:07.314Z,2.60
2022-08-05T14:19:04.379Z,2.80
2022-08-05T14:22:17.433Z,2.60
2022-08-05T14:24:56.385Z,2.90
2022-08-05T14:27:47.495Z,2.90
2022-08-05T14:30:39.669Z,2.90
2022-08-05T14:33:59.350Z,2.90
2022-08-05T14:36:38.302Z,2.60
2022-08-05T14:39:24.475Z,2.80
2022-08-05T14:42:21.220Z,2.60
2022-08-05T14:44:57.443Z,3.00
2022-08-05T14:48:03.269Z,2.90
2022-08-05T14:50:57.795Z,2.90
2022-08-05T14:54:25.833Z,2.70
2022-08-05T15:00:58.238Z,2.90
2022-08-05T15:03:57.573Z,2.80
2022-08-05T15:06:54.420Z,2.90
2022-08-05T15:09:53.998Z,2.80
2022-08-05T15:13:03.297Z,2.80
2022-08-05T15:18:56.058Z,2.70
2022-08-05T15:21:37.429Z,2.80
2022-08-05T15:24:31.347Z,2.80
2022-08-05T15:27:25.751Z,2.90
2022-08-05T15:30:02.328Z,3.10
2022-08-05T15:32:49.436Z,2.70
2022-08-05T15:35:59.121Z,3.00
2022-08-05T15:38:49.345Z,2.80
2022-08-05T15:42:50.114Z,2.50
2022-08-05T15:45:11.933Z,2.90
2022-08-05T15:47:47.387Z,2.90
2022-08-05T15:50:45.592Z,3.00
2022-08-05T15:53:38.200Z,2.80
2022-08-05T15:56:44.453Z,3.00
2022-08-05T15:59:23.477Z,3.10
2022-08-05T16:02:19.682Z,3.20
2022-08-05T16:05:23.272Z,3.20
2022-08-05T16:08:16.083Z,2.90
2022-08-05T16:11:14.638Z,2.90
2022-08-05T16:14:17.230Z,4.60
2022-08-05T16:17:07.828Z,3.10
2022-08-05T16:20:11.585Z,3.20
2022-08-05T16:23:04.292Z,3.40
2022-08-05T16:26:09.645Z,3.10
2022-08-05T16:34:10.196Z,3.30
2022-08-05T16:36:44.634Z,3.20
2022-08-05T16:40:05.735Z,3.20
2022-08-05T16:47:04.924Z,3.30
2022-08-05T16:50:01.406Z,3.10
2022-08-05T16:52:57.378Z,4.00
2022-08-05T16:56:02.665Z,5.80
2022-08-05T16:59:19.314Z,3.00
2022-08-05T17:07:01.739Z,3.30
2022-08-05T17:09:38.945Z,3.40
2022-08-05T17:22:27.556Z,3.60
2022-08-05T17:26:04.771Z,5.40
2022-08-05T17:33:38.901Z,3.40
2022-08-05T17:36:41.138Z,3.80
2022-08-05T17:45:00.358Z,3.90
2022-08-05T17:48:39.209Z,3.60
2022-08-05T17:51:40.125Z,3.80
2022-08-05T17:54:23.665Z,3.60
2022-08-05T18:00:28.621Z,4.00
2022-08-05T18:08:18.507Z,4.10
2022-08-05T18:19:17.808Z,3.80
2022-08-05T18:36:28.629Z,7.20
2022-08-05T18:40:33.641Z,4.90
2022-08-05T18:43:49.396Z,4.40
2022-08-05T18:46:25.886Z,4.50
2022-08-05T18:50:45.117Z,4.20
2022-08-05T18:53:50.325Z,28.00
2022-08-05T18:56:41.432Z,32.10
2022-08-05T19:00:13.357Z,28.30
2022-08-05T19:03:53.453Z,21.70
2022-08-05T19:07:12.577Z,11.10
2022-08-05T19:10:32.235Z,5.80
2022-08-05T19:13:30.654Z,5.10
2022-08-05T19:16:51.749Z,4.70
2022-08-05T19:19:51.939Z,4.60
2022-08-05T19:24:04.461Z,5.50
2022-08-05T19:26:55.772Z,4.60
2022-08-05T19:30:20.565Z,4.20
2022-08-05T19:33:56.481Z,4.70
2022-08-05T19:37:19.490Z,4.30
2022-08-05T19:40:37.942Z,5.10
2022-08-05T19:44:05.772Z,5.70
2022-08-05T19:47:25.335Z,6.30
2022-08-05T19:50:45.983Z,6.50
2022-08-05T19:54:21.969Z,4.60
2022-08-05T19:58:07.039Z,4.60
2022-08-05T20:01:29.665Z,4.70
2022-08-05T20:05:05.043Z,5.30
2022-08-05T20:08:28.748Z,4.70
2022-08-05T20:11:54.264Z,5.40
2022-08-05T20:15:12.130Z,4.70
2022-08-05T20:18:35.863Z,4.80
2022-08-05T20:21:54.385Z,4.90
2022-08-05T20:25:33.807Z,4.90
2022-08-05T20:29:00.748Z,5.60
2022-08-05T20:32:18.555Z,5.50
2022-08-05T20:40:04.498Z,5.40
2022-08-05T20:44:30.707Z,7.00
2022-08-05T20:47:32.025Z,23.60
2022-08-05T20:50:48.368Z,18.30
2022-08-05T20:53:42.832Z,11.60
2022-08-05T20:57:43.893Z,10.20
2022-08-05T21:00:54.581Z,10.70
2022-08-05T21:03:48.122Z,10.70
2022-08-05T21:13:10.371Z,18.20
2022-08-05T21:34:31.692Z,7.00
2022-08-05T21:39:26.273Z,7.20
2022-08-05T21:51:25.179Z,8.00
2022-08-05T23:31:17.213Z,6.20
